Time;durP1;ratioP1;P1;durP2;ratioP2;P2;SDS_P1;SDS_P2;PMS_P1;PMS_P2;Temp;Humidity;BMP_temperature;BMP_pressure;BME280_temperature;BME280_humidity;BME280_pressure;Samples;Min_cycle;Max_cycle;Signal;HPM_P1;HPM_P2
2023/07/16 00:00:35;;;;;;;8.20;3.28;;;;;;;25.09;59.64;99465.22;4966701;28;20029;-94
2023/07/16 00:03:00;;;;;;;8.07;3.63;;;;;;;25.02;59.99;99466.66;4984756;28;20056;-94
2023/07/16 00:05:26;;;;;;;8.48;4.13;;;;;;;25.00;61.98;99454.41;4967800;28;20038;-94
2023/07/16 00:07:51;;;;;;;9.07;4.15;;;;;;;24.94;62.39;99470.44;4984182;28;20113;-96
2023/07/16 00:10:17;;;;;;;9.60;4.70;;;;;;;24.80;62.94;99461.91;4982830;28;20026;-95
2023/07/16 00:12:42;;;;;;;6.60;4.18;;;;;;;24.78;62.91;99466.97;4983917;28;20025;-93
2023/07/16 00:18:30;;;;;;;;;;;;;;;24.63;63.55;99471.38;5017025;28;20045;-95
2023/07/16 00:20:55;;;;;;;6.38;4.05;;;;;;;24.56;63.30;99458.25;5000602;28;19909;-94
2023/07/16 00:23:21;;;;;;;6.40;4.30;;;;;;;24.53;63.75;99463.66;4967597;28;20026;-94
2023/07/16 00:25:46;;;;;;;7.43;4.30;;;;;;;24.43;64.41;99455.97;4967088;28;20510;-92
2023/07/16 00:28:11;;;;;;;6.88;4.20;;;;;;;24.54;63.96;99468.03;4983685;28;20022;-94
2023/07/16 00:30:37;;;;;;;9.05;4.97;;;;;;;24.50;63.68;99456.94;4983527;28;20026;-95
2023/07/16 00:33:02;;;;;;;7.82;4.63;;;;;;;24.51;64.02;99455.78;4967068;28;20033;-94
2023/07/16 00:35:28;;;;;;;7.32;4.70;;;;;;;24.56;63.88;99457.47;4967420;28;20022;-94
2023/07/16 00:37:53;;;;;;;8.48;5.03;;;;;;;24.45;64.73;99454.44;4966887;28;20076;-94
2023/07/16 00:40:19;;;;;;;6.43;4.80;;;;;;;24.45;64.55;99459.16;4967652;28;20029;-96
2023/07/16 00:42:44;;;;;;;9.30;4.82;;;;;;;24.47;64.34;99448.59;4966753;28;20062;-95
2023/07/16 00:45:14;;;;;;;6.43;4.10;;;;;;;24.35;63.95;99447.53;4966828;28;20080;-93
2023/07/16 00:47:41;;;;;;;8.20;3.75;;;;;;;24.31;63.94;99449.41;4982813;28;20026;-94
2023/07/16 00:50:07;;;;;;;5.18;3.67;;;;;;;24.36;64.10;99442.81;4966880;28;20038;-95
2023/07/16 00:52:33;;;;;;;8.98;4.22;;;;;;;24.35;64.34;99444.78;4967416;28;20044;-95
2023/07/16 00:54:58;;;;;;;9.77;4.88;;;;;;;24.40;64.13;99444.53;4966495;28;20025;-94
2023/07/16 00:57:24;;;;;;;8.07;4.30;;;;;;;24.45;63.98;99448.16;4983435;28;20029;-94
2023/07/16 00:59:49;;;;;;;4.68;3.67;;;;;;;24.50;64.09;99447.88;4967354;28;20026;-95
2023/07/16 01:02:15;;;;;;;7.38;4.18;;;;;;;24.52;63.83;99446.34;4966838;28;20526;-93
2023/07/16 01:04:40;;;;;;;5.68;3.63;;;;;;;24.50;63.67;99450.63;4982634;28;20026;-95
2023/07/16 01:07:07;;;;;;;4.20;3.53;;;;;;;24.46;63.23;99442.25;4966503;28;20026;-95
2023/07/16 01:09:32;;;;;;;5.40;3.75;;;;;;;24.33;63.38;99435.31;4967103;28;20526;-95
2023/07/16 01:11:58;;;;;;;6.70;3.60;;;;;;;24.26;64.21;99435.13;4983750;28;20022;-94
2023/07/16 01:14:23;;;;;;;7.43;4.45;;;;;;;24.25;63.27;99436.31;4983015;28;20034;-95
2023/07/16 01:16:49;;;;;;;5.30;3.45;;;;;;;24.16;64.40;99440.03;4983140;28;20014;-94
2023/07/16 01:19:14;;;;;;;8.32;4.60;;;;;;;24.15;63.97;99432.94;4966921;28;20042;-94
2023/07/16 01:21:58;;;;;;;6.05;3.58;;;;;;;24.22;63.74;99440.56;4988333;28;20022;-96
2023/07/16 01:24:49;;;;;;;7.30;3.67;;;;;;;24.12;64.27;99435.63;5005592;28;20040;-96
2023/07/16 01:27:36;;;;;;;8.82;4.05;;;;;;;24.05;64.38;99438.19;5006820;28;20077;-95
2023/07/16 01:30:02;;;;;;;5.43;3.78;;;;;;;23.90;64.60;99431.56;5007173;28;20058;-96
2023/07/16 01:32:28;;;;;;;5.20;3.67;;;;;;;23.79;64.68;99423.06;4973419;28;20465;-96
2023/07/16 01:34:54;;;;;;;6.60;3.38;;;;;;;23.60;64.84;99399.81;4974953;28;20029;-96
2023/07/16 01:37:23;;;;;;;5.78;3.33;;;;;;;23.66;64.55;99407.75;4974056;28;20057;-96
2023/07/16 01:39:48;;;;;;;4.97;3.55;;;;;;;23.67;65.18;99425.88;4984093;28;20022;-90
2023/07/16 01:42:14;;;;;;;12.35;3.72;;;;;;;23.68;64.61;99425.53;4965552;28;20048;-91
2023/07/16 01:44:39;;;;;;;9.60;3.65;;;;;;;23.66;65.06;99429.75;4981741;28;20108;-91
2023/07/16 01:47:06;;;;;;;5.85;3.40;;;;;;;23.69;65.28;99435.34;4965800;28;20503;-91
2023/07/16 01:49:32;;;;;;;6.22;3.42;;;;;;;23.60;65.16;99430.03;4998452;28;20033;-90
2023/07/16 01:52:01;;;;;;;5.28;3.63;;;;;;;23.57;65.35;99425.25;4981586;28;20022;-90
2023/07/16 01:54:26;;;;;;;5.57;3.53;;;;;;;23.56;65.29;99433.84;4966235;28;20025;-90
2023/07/16 01:56:52;;;;;;;6.10;3.95;;;;;;;23.67;64.42;99428.63;4985521;28;20427;-90
2023/07/16 01:59:18;;;;;;;5.30;3.28;;;;;;;23.55;65.63;99421.25;4969221;28;20025;-90
2023/07/16 02:01:43;;;;;;;6.47;3.33;;;;;;;23.49;65.68;99426.22;4985184;28;20026;-91
2023/07/16 02:04:09;;;;;;;5.32;3.50;;;;;;;23.51;65.19;99409.38;4969120;28;20373;-90
2023/07/16 02:06:34;;;;;;;7.32;3.65;;;;;;;23.51;65.64;99429.44;4969594;28;20435;-90
2023/07/16 02:09:00;;;;;;;4.97;3.47;;;;;;;23.47;65.35;99434.03;4969255;28;20026;-91
2023/07/16 02:11:25;;;;;;;6.10;3.25;;;;;;;23.49;65.47;99430.91;4984758;28;20084;-90
2023/07/16 02:13:51;;;;;;;8.50;3.78;;;;;;;23.43;65.54;99422.16;4969670;28;20044;-90
2023/07/16 02:16:16;;;;;;;4.60;3.42;;;;;;;23.36;66.21;99428.25;4985095;28;20034;-90
2023/07/16 02:18:42;;;;;;;7.28;3.78;;;;;;;23.34;65.79;99419.56;4969320;28;20046;-89
2023/07/16 02:21:07;;;;;;;5.90;3.17;;;;;;;23.41;65.64;99438.19;4968544;28;20539;-90
2023/07/16 02:23:33;;;;;;;6.15;3.42;;;;;;;23.37;65.81;99431.81;4985272;28;20033;-90
2023/07/16 02:25:58;;;;;;;7.63;4.25;;;;;;;23.36;65.86;99435.69;4985039;28;20022;-90
2023/07/16 02:28:23;;;;;;;12.00;3.40;;;;;;;23.35;65.57;99432.16;5000783;28;20076;-90
2023/07/16 02:30:50;;;;;;;5.60;3.28;;;;;;;23.36;65.74;99433.75;4968132;28;20525;-91
2023/07/16 02:33:16;;;;;;;6.80;3.10;;;;;;;23.27;66.15;99432.31;4968596;28;20104;-90
2023/07/16 02:35:49;;;;;;;6.22;3.45;;;;;;;23.23;66.03;99428.69;4967733;28;20025;-91
2023/07/16 02:38:15;;;;;;;4.65;3.30;;;;;;;23.16;65.96;99427.34;4983720;28;20054;-90
2023/07/16 02:40:47;;;;;;;6.10;3.05;;;;;;;23.17;65.99;99436.38;4984361;28;20464;-90
2023/07/16 02:43:12;;;;;;;4.95;3.13;;;;;;;23.12;66.24;99436.66;4968359;28;20034;-90
2023/07/16 02:45:38;;;;;;;5.15;3.33;;;;;;;23.09;65.85;99432.63;4968066;28;20086;-90
2023/07/16 02:48:04;;;;;;;4.50;3.53;;;;;;;23.05;66.20;99431.72;4968627;28;20018;-90
2023/07/16 02:50:30;;;;;;;5.13;3.45;;;;;;;22.95;66.48;99419.28;4984388;28;20099;-90
2023/07/16 02:52:55;;;;;;;8.05;3.45;;;;;;;23.01;66.11;99433.59;4968724;28;20030;-90
2023/07/16 02:55:21;;;;;;;5.13;3.38;;;;;;;22.97;66.09;99432.66;4967588;28;20029;-90
2023/07/16 02:57:46;;;;;;;5.68;3.53;;;;;;;22.92;65.98;99421.94;4984911;28;20427;-90
2023/07/16 03:00:12;;;;;;;6.03;3.25;;;;;;;22.94;65.85;99430.63;4968189;28;20030;-90
2023/07/16 03:02:37;;;;;;;9.20;3.90;;;;;;;22.93;65.40;99423.53;4984175;28;20034;-91
2023/07/16 03:05:03;;;;;;;5.80;3.53;;;;;;;22.95;66.23;99438.53;4968002;28;20496;-90
2023/07/16 03:07:29;;;;;;;6.72;3.60;;;;;;;22.98;65.87;99431.53;4967887;28;20088;-89
2023/07/16 03:09:54;;;;;;;6.10;3.35;;;;;;;22.98;65.58;99429.56;4968058;28;20488;-90
2023/07/16 03:12:19;;;;;;;5.32;3.45;;;;;;;23.04;65.26;99448.59;4999569;28;20045;-90
2023/07/16 03:14:45;;;;;;;6.47;3.20;;;;;;;22.99;65.51;99438.59;4968451;28;20045;-90
2023/07/16 03:17:10;;;;;;;6.10;3.60;;;;;;;22.94;65.44;99431.41;4969169;28;20034;-89
2023/07/16 03:19:36;;;;;;;4.97;3.40;;;;;;;22.84;65.60;99417.41;4983646;28;20060;-90
2023/07/16 03:22:02;;;;;;;5.70;3.60;;;;;;;23.06;65.44;99451.78;4985189;28;20380;-90
2023/07/16 03:24:28;;;;;;;7.00;2.80;;;;;;;22.98;66.19;99439.75;4985046;28;20084;-90
2023/07/16 03:26:53;;;;;;;7.57;3.53;;;;;;;22.89;66.39;99442.66;4967815;28;20033;-89
2023/07/16 03:29:19;;;;;;;4.85;3.17;;;;;;;22.91;66.33;99442.28;5000550;28;20030;-90
2023/07/16 03:31:44;;;;;;;6.07;3.45;;;;;;;23.09;65.85;99453.81;4968031;28;20472;-90
2023/07/16 03:34:10;;;;;;;7.03;3.63;;;;;;;22.99;64.82;99447.66;4967679;28;20470;-90
2023/07/16 03:36:35;;;;;;;4.25;3.65;;;;;;;22.95;65.17;99435.78;4967783;28;20022;-90
2023/07/16 03:39:01;;;;;;;8.23;3.50;;;;;;;22.99;65.26;99439.41;4968483;28;20030;-90
2023/07/16 03:41:26;;;;;;;7.15;3.45;;;;;;;23.15;65.09;99450.44;4983585;28;20042;-89
2023/07/16 03:43:52;;;;;;;8.02;4.60;;;;;;;23.14;65.36;99459.84;4984063;28;20026;-90
2023/07/16 03:46:17;;;;;;;7.07;3.53;;;;;;;23.15;65.53;99461.44;4983593;28;20476;-89
2023/07/16 03:48:42;;;;;;;8.35;3.75;;;;;;;23.19;65.18;99467.84;4983561;28;20030;-90
2023/07/16 03:51:08;;;;;;;5.97;3.95;;;;;;;23.28;64.50;99473.16;4967159;28;20508;-90
2023/07/16 03:53:34;;;;;;;5.80;4.25;;;;;;;23.16;65.16;99445.78;4999083;28;20040;-90
2023/07/16 03:55:59;;;;;;;5.07;3.95;;;;;;;23.33;64.88;99461.13;4999589;28;20413;-90
2023/07/16 03:58:24;;;;;;;7.40;3.50;;;;;;;23.43;65.20;99465.31;4983457;28;20092;-89
2023/07/16 04:00:50;;;;;;;11.98;4.78;;;;;;;23.44;65.32;99469.66;4967261;28;20029;-90
2023/07/16 04:03:15;;;;;;;5.63;4.07;;;;;;;23.50;65.69;99471.00;4983367;28;20026;-89
2023/07/16 04:05:43;;;;;;;5.13;3.58;;;;;;;23.48;64.73;99463.09;4982898;28;20026;-89
2023/07/16 04:08:09;;;;;;;7.80;3.55;;;;;;;23.53;64.82;99467.53;4967692;28;20061;-89
2023/07/16 04:10:34;;;;;;;5.82;3.50;;;;;;;23.58;64.65;99468.06;4983027;28;20030;-90
2023/07/16 04:13:00;;;;;;;5.70;3.60;;;;;;;23.64;64.27;99470.56;4999011;28;20035;-90
2023/07/16 04:15:25;;;;;;;6.03;3.80;;;;;;;23.65;64.24;99461.16;4968334;28;20029;-90
2023/07/16 04:17:51;;;;;;;6.15;4.10;;;;;;;23.78;64.21;99477.25;4998114;28;20042;-90
2023/07/16 04:20:16;;;;;;;8.05;3.65;;;;;;;23.78;63.95;99470.94;4983575;28;20042;-91
2023/07/16 04:22:42;;;;;;;9.20;4.63;;;;;;;23.79;63.03;99472.56;4967707;28;20403;-91
2023/07/16 04:25:08;;;;;;;5.20;3.33;;;;;;;23.92;63.30;99471.31;4966711;28;20554;-90
2023/07/16 04:27:33;;;;;;;4.82;3.15;;;;;;;23.90;61.83;99465.34;4982410;28;20128;-90
2023/07/16 04:30:01;;;;;;;5.45;3.25;;;;;;;24.02;62.60;99469.97;4982570;28;20113;-91
2023/07/16 04:32:27;;;;;;;4.65;3.28;;;;;;;24.02;62.50;99453.47;4982620;28;20026;-90
2023/07/16 04:34:52;;;;;;;8.07;3.38;;;;;;;24.18;62.43;99478.22;4965856;28;20076;-90
2023/07/16 04:37:18;;;;;;;6.78;3.67;;;;;;;24.28;61.35;99472.16;4982495;28;20026;-91
2023/07/16 04:39:43;;;;;;;4.78;3.50;;;;;;;24.44;61.75;99485.88;4967193;28;20037;-90
2023/07/16 04:42:09;;;;;;;4.95;3.40;;;;;;;24.44;61.42;99479.56;4966878;28;20022;-90
2023/07/16 04:44:34;;;;;;;6.38;3.60;;;;;;;24.54;60.33;99473.53;4982208;28;20052;-91
2023/07/16 04:47:00;;;;;;;4.57;3.33;;;;;;;24.67;60.79;99497.03;4982541;28;20455;-90
2023/07/16 04:49:25;;;;;;;5.63;3.50;;;;;;;24.70;61.50;99488.06;4967514;28;20026;-91
2023/07/16 04:51:50;;;;;;;7.32;2.83;;;;;;;24.74;60.83;99488.94;4983231;28;20401;-90
2023/07/16 04:54:16;;;;;;;11.65;3.13;;;;;;;24.74;61.13;99491.69;4981705;28;20121;-90
2023/07/16 04:56:42;;;;;;;4.53;3.22;;;;;;;24.72;60.92;99480.22;4983578;28;20033;-90
2023/07/16 04:59:07;;;;;;;6.97;3.47;;;;;;;24.68;60.27;99468.34;4982394;28;20045;-91
2023/07/16 05:01:33;;;;;;;5.38;3.15;;;;;;;24.77;60.18;99474.41;4966711;28;20033;-90
2023/07/16 05:03:58;;;;;;;5.75;3.15;;;;;;;24.89;59.49;99487.25;4982617;28;20060;-90
2023/07/16 05:06:24;;;;;;;6.63;3.08;;;;;;;24.89;58.50;99472.69;4983251;28;20034;-91
2023/07/16 05:08:50;;;;;;;4.32;2.85;;;;;;;25.08;57.88;99483.72;4965752;28;20089;-90
2023/07/16 05:11:15;;;;;;;6.18;3.10;;;;;;;25.22;57.97;99493.47;4966616;28;20061;-91
2023/07/16 05:13:41;;;;;;;6.03;3.25;;;;;;;25.23;58.57;99487.56;4967071;28;20069;-90
2023/07/16 05:16:06;;;;;;;5.95;3.05;;;;;;;25.35;58.47;99489.38;4982732;28;20555;-92
2023/07/16 05:18:32;;;;;;;7.20;3.28;;;;;;;25.48;59.02;99490.00;4965936;28;20530;-91
2023/07/16 05:20:57;;;;;;;8.45;3.30;;;;;;;25.57;56.78;99499.63;4982344;28;20545;-89
2023/07/16 05:23:23;;;;;;;6.13;3.20;;;;;;;25.71;56.37;99495.53;4983195;28;20484;-90
2023/07/16 05:25:49;;;;;;;4.30;3.00;;;;;;;25.79;55.90;99513.78;4982094;28;20477;-88
2023/07/16 05:28:18;;;;;;;7.40;3.13;;;;;;;25.92;55.74;99504.22;4982795;28;20034;-89
2023/07/16 05:30:43;;;;;;;4.18;3.30;;;;;;;25.94;54.61;99482.56;4985088;28;20041;-89
2023/07/16 05:33:10;;;;;;;6.82;3.00;;;;;;;26.21;54.52;99507.44;4985639;28;20026;-90
2023/07/16 05:35:35;;;;;;;6.50;2.97;;;;;;;26.36;53.49;99508.44;4986291;28;20018;-91
2023/07/16 05:38:01;;;;;;;4.07;2.80;;;;;;;26.39;53.41;99502.94;5003421;28;20025;-90
2023/07/16 05:40:26;;;;;;;9.48;3.35;;;;;;;26.44;53.05;99501.03;4985985;28;20045;-90
2023/07/16 05:42:52;;;;;;;3.38;2.75;;;;;;;26.51;53.19;99501.94;4985626;28;20034;-90
2023/07/16 05:45:17;;;;;;;6.05;2.65;;;;;;;26.65;53.23;99493.09;4986737;28;20480;-92
2023/07/16 05:47:46;;;;;;;9.70;2.95;;;;;;;26.55;53.68;99493.72;4985949;28;20040;-91
2023/07/16 05:50:12;;;;;;;3.75;2.72;;;;;;;26.71;52.84;99488.84;4986236;28;20041;-91
2023/07/16 05:52:37;;;;;;;6.00;3.20;;;;;;;26.79;53.52;99503.53;4985541;28;20030;-91
2023/07/16 05:55:03;;;;;;;4.25;2.70;;;;;;;26.89;53.18;99494.59;4985393;28;20033;-91
2023/07/16 05:57:28;;;;;;;5.13;2.60;;;;;;;26.99;52.45;99487.59;4985785;28;20113;-90
2023/07/16 05:59:54;;;;;;;8.80;3.22;;;;;;;27.22;52.33;99512.34;4984823;28;20033;-91
2023/07/16 06:02:19;;;;;;;3.90;2.65;;;;;;;27.11;52.20;99492.09;4986037;28;20026;-91
2023/07/16 06:04:45;;;;;;;5.57;2.90;;;;;;;27.15;51.95;99502.00;4970832;28;20033;-90
2023/07/16 06:07:11;;;;;;;5.20;3.28;;;;;;;27.36;52.21;99507.00;4985526;28;20037;-91
2023/07/16 06:09:37;;;;;;;4.63;2.78;;;;;;;27.50;51.86;99506.38;5001851;28;20034;-90
2023/07/16 06:12:03;;;;;;;4.47;3.03;;;;;;;27.60;50.73;99508.47;4985925;28;20026;-91
2023/07/16 06:14:28;;;;;;;5.07;3.50;;;;;;;27.67;51.83;99507.72;4986459;28;20476;-90
2023/07/16 06:16:54;;;;;;;4.30;2.85;;;;;;;27.59;51.57;99504.09;5002775;28;20037;-90
2023/07/16 06:19:21;;;;;;;5.07;3.10;;;;;;;27.71;51.18;99514.09;4985542;28;20131;-90
2023/07/16 06:21:49;;;;;;;4.70;2.90;;;;;;;27.79;50.53;99507.44;4969669;28;20064;-89
2023/07/16 06:24:14;;;;;;;5.22;3.30;;;;;;;27.91;50.76;99514.69;4969774;28;20033;-90
2023/07/16 06:26:42;;;;;;;4.70;3.00;;;;;;;27.94;49.87;99507.59;4969101;28;20030;-90
2023/07/16 06:29:08;;;;;;;5.55;3.00;;;;;;;27.92;49.56;99499.66;4969344;28;20468;-90
2023/07/16 06:31:33;;;;;;;3.78;2.45;;;;;;;28.09;49.10;99502.97;4968232;28;20037;-90
2023/07/16 06:34:01;;;;;;;4.72;2.85;;;;;;;28.23;49.88;99511.38;4985725;28;20057;-91
2023/07/16 06:36:27;;;;;;;3.55;2.60;;;;;;;28.41;49.09;99508.75;4988975;28;20057;-92
2023/07/16 06:38:52;;;;;;;5.07;3.10;;;;;;;28.58;48.80;99502.53;4970058;28;20026;-92
2023/07/16 06:41:18;;;;;;;4.85;2.90;;;;;;;28.68;48.69;99501.00;4968705;28;20112;-91
2023/07/16 06:43:43;;;;;;;4.10;2.88;;;;;;;28.91;47.19;99516.53;4971663;28;20036;-92
2023/07/16 06:46:09;;;;;;;5.90;2.67;;;;;;;29.00;47.75;99514.22;4973070;28;20049;-92
2023/07/16 06:48:37;;;;;;;8.18;2.80;;;;;;;29.01;46.30;99497.19;4968327;28;20041;-92
2023/07/16 06:51:02;;;;;;;6.30;3.03;;;;;;;29.12;47.62;99502.81;4984848;28;20089;-89
2023/07/16 06:53:28;;;;;;;4.53;2.28;;;;;;;29.15;46.73;99506.78;4984943;28;20053;-90
2023/07/16 06:55:56;;;;;;;7.63;5.55;;;;;;;29.23;47.99;99502.06;4968424;28;20049;-90
2023/07/16 06:58:33;;;;;;;5.40;3.10;;;;;;;29.33;46.55;99492.97;5001257;28;20030;-90
2023/07/16 07:00:58;;;;;;;3.95;2.88;;;;;;;29.47;46.60;99501.31;4984744;28;20022;-90
2023/07/16 07:03:24;;;;;;;4.30;2.95;;;;;;;29.51;46.84;99495.75;4969004;28;20040;-90
2023/07/16 07:05:50;;;;;;;4.75;2.60;;;;;;;29.64;45.91;99498.97;4984809;28;20408;-91
2023/07/16 07:08:15;;;;;;;5.05;3.13;;;;;;;29.55;45.44;99489.06;4968200;28;20476;-93
2023/07/16 07:10:41;;;;;;;4.32;2.55;;;;;;;29.62;45.58;99485.50;4985878;28;20037;-92
2023/07/16 07:13:06;;;;;;;3.95;2.63;;;;;;;29.84;46.25;99502.97;4969610;28;20037;-92
2023/07/16 07:15:41;;;;;;;5.32;2.80;;;;;;;29.90;44.64;99484.72;4968603;28;20030;-92
2023/07/16 07:18:06;;;;;;;4.78;2.97;;;;;;;30.00;44.73;99497.81;4984288;28;20025;-92
2023/07/16 07:20:32;;;;;;;3.05;2.42;;;;;;;30.05;44.23;99488.31;4964698;28;20054;-92
2023/07/16 07:23:02;;;;;;;3.92;2.90;;;;;;;29.86;44.20;99492.25;4964881;28;20022;-90
2023/07/16 07:25:30;;;;;;;4.95;2.55;;;;;;;30.03;44.40;99510.13;4955018;28;20506;-90
2023/07/16 07:27:56;;;;;;;5.13;2.97;;;;;;;30.12;44.72;99495.84;4964285;28;20041;-91
2023/07/16 07:30:22;;;;;;;4.88;2.70;;;;;;;30.23;43.95;99500.16;4964482;28;20027;-91
2023/07/16 07:32:49;;;;;;;6.38;3.10;;;;;;;30.33;44.14;99493.03;4964989;28;20624;-92
2023/07/16 07:35:15;;;;;;;4.53;2.60;;;;;;;30.33;44.54;99475.59;4965705;28;20030;-91
2023/07/16 07:37:40;;;;;;;3.83;2.40;;;;;;;30.33;45.17;99490.28;4950268;28;20033;-91
2023/07/16 07:40:07;;;;;;;4.53;2.60;;;;;;;30.28;44.11;99489.84;4964875;28;20094;-91
2023/07/16 07:42:33;;;;;;;4.18;2.40;;;;;;;30.24;43.79;99492.66;4965293;28;20057;-91
2023/07/16 07:44:58;;;;;;;3.63;3.15;;;;;;;30.32;43.97;99485.91;4964219;28;20035;-91
2023/07/16 07:47:24;;;;;;;8.85;4.30;;;;;;;30.41;44.77;99489.06;4949172;28;20034;-91
2023/07/16 07:49:50;;;;;;;5.95;3.80;;;;;;;30.64;43.10;99490.59;4964631;28;20027;-93
2023/07/16 07:52:16;;;;;;;7.47;3.15;;;;;;;30.69;42.48;99486.59;4964221;28;20026;-91
2023/07/16 07:54:42;;;;;;;7.65;3.10;;;;;;;30.71;42.21;99485.00;4965751;28;20033;-91
2023/07/16 07:57:07;;;;;;;4.28;2.78;;;;;;;30.89;42.09;99489.75;4982079;28;20030;-91
2023/07/16 07:59:33;;;;;;;7.22;4.30;;;;;;;30.91;42.36;99487.34;4965013;28;20041;-91
2023/07/16 08:01:59;;;;;;;4.47;2.88;;;;;;;30.91;42.39;99482.59;4965510;28;20029;-91
2023/07/16 08:04:25;;;;;;;4.68;2.97;;;;;;;30.99;42.51;99480.56;4965924;28;20037;-91
2023/07/16 08:06:51;;;;;;;7.57;3.42;;;;;;;31.06;42.38;99488.88;4966846;28;20386;-91
2023/07/16 08:09:17;;;;;;;3.42;2.42;;;;;;;31.01;41.96;99483.75;4952613;28;20018;-91
2023/07/16 08:11:42;;;;;;;3.35;2.50;;;;;;;31.34;42.22;99495.50;4969779;28;20096;-91
2023/07/16 08:14:08;;;;;;;6.75;3.00;;;;;;;31.40;41.66;99493.88;4967669;28;20038;-91
2023/07/16 08:16:40;;;;;;;4.53;2.78;;;;;;;31.55;41.21;99497.38;4968356;28;20034;-90
2023/07/16 08:19:05;;;;;;;6.18;3.75;;;;;;;31.65;40.59;99490.94;4968915;28;20085;-91
2023/07/16 08:21:33;;;;;;;3.58;2.92;;;;;;;31.76;40.59;99504.78;4957574;28;20041;-91
2023/07/16 08:24:00;;;;;;;4.32;2.47;;;;;;;31.73;40.19;99486.09;4991641;28;20114;-91
2023/07/16 08:26:27;;;;;;;8.18;2.83;;;;;;;31.75;40.00;99478.13;4969396;28;20023;-90
2023/07/16 08:28:54;;;;;;;7.35;3.17;;;;;;;31.90;38.73;99501.88;4968518;28;20102;-91
2023/07/16 08:31:21;;;;;;;5.95;2.83;;;;;;;31.81;39.58;99484.84;4951345;28;20031;-91
2023/07/16 08:33:46;;;;;;;6.32;2.67;;;;;;;32.02;39.50;99503.38;4969288;28;20030;-91
2023/07/16 08:36:12;;;;;;;5.68;2.50;;;;;;;31.82;39.19;99478.84;4971408;28;20057;-91
2023/07/16 08:38:37;;;;;;;4.10;2.90;;;;;;;32.10;39.45;99492.97;4970539;28;20030;-91
2023/07/16 08:41:04;;;;;;;5.22;2.92;;;;;;;32.34;38.79;99503.09;4968434;28;20037;-90
2023/07/16 08:43:30;;;;;;;8.50;3.00;;;;;;;32.30;38.91;99485.63;4967163;28;20062;-91
2023/07/16 08:45:59;;;;;;;5.72;3.20;;;;;;;32.47;38.69;99497.00;4951338;28;20103;-91
2023/07/16 08:48:25;;;;;;;4.20;2.97;;;;;;;32.41;38.29;99485.50;4967868;28;20125;-91
2023/07/16 08:50:51;;;;;;;5.10;2.78;;;;;;;32.61;39.09;99500.44;4971759;28;20507;-96
2023/07/16 08:53:18;;;;;;;4.95;2.97;;;;;;;32.57;38.75;99490.53;4956002;28;20030;-96
2023/07/16 08:55:52;;;;;;;5.88;2.38;;;;;;;32.77;37.88;99490.72;4993079;28;20093;-96
2023/07/16 08:58:20;;;;;;;4.32;2.85;;;;;;;32.89;37.30;99490.16;4970957;28;20083;-96
2023/07/16 09:00:46;;;;;;;7.90;3.20;;;;;;;32.95;37.73;99496.84;4975799;28;20146;-96
2023/07/16 09:03:16;;;;;;;3.97;2.70;;;;;;;33.07;37.44;99478.75;4978378;28;20155;-96
2023/07/16 09:05:42;;;;;;;3.87;2.60;;;;;;;33.29;36.33;99484.88;4978453;28;20030;-96
2023/07/16 09:08:10;;;;;;;7.72;3.30;;;;;;;33.51;36.11;99485.34;4979474;28;20030;-96
2023/07/16 09:10:36;;;;;;;4.68;2.65;;;;;;;33.51;36.19;99476.97;4980196;28;20034;-95
2023/07/16 09:13:19;;;;;;;6.32;2.90;;;;;;;33.45;35.74;99475.06;4977812;28;20515;-95
2023/07/16 09:15:52;;;;;;;4.68;2.70;;;;;;;33.38;37.32;99487.91;5011056;28;20014;-96
2023/07/16 09:18:22;;;;;;;4.53;2.97;;;;;;;33.43;37.47;99489.44;4979886;28;20010;-96
2023/07/16 09:20:56;;;;;;;4.43;2.70;;;;;;;33.49;36.33;99490.56;4978907;28;20046;-96
2023/07/16 09:23:24;;;;;;;6.00;3.00;;;;;;;33.57;36.68;99488.44;4979236;28;20127;-96
2023/07/16 09:25:50;;;;;;;6.90;2.90;;;;;;;33.43;37.27;99475.47;4977091;28;20038;-96
2023/07/16 09:28:18;;;;;;;6.93;2.58;;;;;;;33.23;37.44;99475.41;4976103;28;20092;-96
2023/07/16 09:30:44;;;;;;;6.53;3.42;;;;;;;33.32;37.22;99463.69;4975815;28;20030;-96
2023/07/16 09:33:16;;;;;;;6.20;3.30;;;;;;;33.35;37.88;99460.88;4977499;28;20049;-96
2023/07/16 09:35:42;;;;;;;6.53;3.22;;;;;;;33.42;36.86;99485.88;4976243;28;20022;-96
2023/07/16 09:38:17;;;;;;;4.80;2.85;;;;;;;33.15;38.40;99460.75;4976003;28;20041;-96
2023/07/16 09:40:50;;;;;;;5.20;2.90;;;;;;;33.41;37.12;99480.69;4978784;28;20113;-96
2023/07/16 09:43:22;;;;;;;4.63;2.95;;;;;;;33.29;37.58;99470.94;4975591;28;20052;-96
2023/07/16 09:45:47;;;;;;;5.97;2.70;;;;;;;33.42;36.95;99480.28;4976499;28;20026;-96
2023/07/16 09:48:14;;;;;;;3.28;2.60;;;;;;;33.57;37.29;99478.06;4975305;28;20026;-96
2023/07/16 09:50:41;;;;;;;6.18;2.70;;;;;;;33.52;38.17;99456.22;4975880;28;20014;-96
2023/07/16 09:53:07;;;;;;;6.38;3.17;;;;;;;33.61;37.13;99469.66;4976104;28;20058;-96
2023/07/16 09:55:33;;;;;;;5.25;2.80;;;;;;;33.46;36.91;99452.31;4976325;28;20105;-96
2023/07/16 09:58:00;;;;;;;5.70;2.80;;;;;;;33.57;37.41;99468.91;4975389;28;20113;-96
2023/07/16 10:00:37;;;;;;;4.25;2.63;;;;;;;33.52;36.07;99472.97;4960840;28;20042;-95
2023/07/16 10:03:12;;;;;;;5.38;2.55;;;;;;;33.64;36.83;99463.25;4976888;28;20031;-96
2023/07/16 10:05:46;;;;;;;4.72;2.60;;;;;;;33.65;36.39;99464.81;4963024;28;20030;-96
2023/07/16 10:08:19;;;;;;;4.80;2.90;;;;;;;33.45;36.86;99439.56;4979340;28;20016;-96
2023/07/16 10:10:52;;;;;;;6.43;2.97;;;;;;;33.73;35.86;99446.72;4976741;28;20049;-96
2023/07/16 10:13:21;;;;;;;5.70;2.75;;;;;;;33.66;35.71;99438.47;4979459;28;20027;-96
2023/07/16 10:15:57;;;;;;;7.25;3.25;;;;;;;33.95;36.08;99451.94;4974657;28;20113;-96
2023/07/16 10:18:30;;;;;;;11.80;3.20;;;;;;;33.81;35.63;99464.94;4977432;28;20099;-96
2023/07/16 10:21:05;;;;;;;4.25;3.17;;;;;;;33.62;35.45;99434.97;4978329;28;20061;-95
2023/07/16 10:24:02;;;;;;;5.35;3.05;;;;;;;33.67;35.64;99431.66;4975598;28;20006;-96
2023/07/16 10:26:29;;;;;;;4.68;2.80;;;;;;;33.68;36.22;99433.25;4968209;29;20054;-96
2023/07/16 10:28:54;;;;;;;4.53;2.80;;;;;;;33.88;36.21;99458.44;4952303;29;20051;-96
2023/07/16 10:31:24;;;;;;;6.57;3.20;;;;;;;33.84;36.06;99437.38;4952881;29;20046;-95
2023/07/16 10:34:04;;;;;;;3.47;2.75;;;;;;;34.07;35.15;99428.19;4953716;29;20457;-96
2023/07/16 10:36:32;;;;;;;3.45;2.95;;;;;;;34.30;34.66;99433.75;4971355;29;20159;-96
2023/07/16 10:39:03;;;;;;;4.68;2.75;;;;;;;34.52;34.01;99438.94;4953587;29;20031;-96
2023/07/16 10:41:31;;;;;;;8.43;2.70;;;;;;;34.32;34.39;99422.94;4954073;29;20058;-95
2023/07/16 10:44:01;;;;;;;4.35;2.83;;;;;;;34.31;34.88;99415.78;4940568;29;20351;-96
2023/07/16 10:46:27;;;;;;;6.55;2.80;;;;;;;34.57;34.91;99439.19;4956433;29;20110;-95
2023/07/16 10:48:53;;;;;;;9.52;3.30;;;;;;;34.53;34.05;99416.13;4955066;29;20046;-96
2023/07/16 10:51:25;;;;;;;9.25;3.30;;;;;;;34.77;32.85;99416.06;4952132;29;20060;-96
2023/07/16 10:53:50;;;;;;;4.60;2.72;;;;;;;34.92;33.62;99413.72;4953052;29;20035;-96
2023/07/16 10:56:18;;;;;;;4.03;2.50;;;;;;;34.97;32.55;99418.84;4956128;28;20038;-96
2023/07/16 10:58:50;;;;;;;4.40;2.90;;;;;;;35.20;32.13;99438.31;4978239;28;20033;-96
2023/07/16 11:01:15;;;;;;;4.10;2.60;;;;;;;35.18;31.82;99425.97;4978609;28;20023;-96
2023/07/16 11:03:41;;;;;;;7.25;3.50;;;;;;;35.36;32.06;99436.75;4993475;28;20054;-95
2023/07/16 11:06:11;;;;;;;8.57;3.13;;;;;;;35.13;31.32;99410.44;4994318;28;20473;-95
2023/07/16 11:08:37;;;;;;;9.75;2.97;;;;;;;35.30;31.44;99430.09;4979238;28;20026;-96
2023/07/16 11:11:02;;;;;;;11.27;3.47;;;;;;;35.26;32.13;99415.38;4991646;28;20041;-95
2023/07/16 11:13:33;;;;;;;4.45;2.60;;;;;;;35.27;31.21;99417.75;4987848;28;20069;-96
2023/07/16 11:16:13;;;;;;;;;;;;;;;35.21;31.61;99437.06;4973520;28;20033;-96
2023/07/16 11:18:41;;;;;;;5.55;3.15;;;;;;;35.15;31.71;99429.63;5004888;28;19909;-95
2023/07/16 11:21:07;;;;;;;6.05;3.00;;;;;;;35.02;32.02;99418.31;4975305;28;20054;-94
2023/07/16 11:23:35;;;;;;;4.28;2.97;;;;;;;34.85;32.75;99416.69;4971439;28;20026;-95
2023/07/16 11:26:04;;;;;;;4.80;3.40;;;;;;;34.92;31.71;99419.31;4954805;28;20026;-95
2023/07/16 11:28:40;;;;;;;7.30;2.92;;;;;;;34.94;32.68;99417.66;4953397;28;20034;-93
2023/07/16 11:31:17;;;;;;;4.75;3.20;;;;;;;34.68;33.14;99408.25;4970987;28;20102;-96
2023/07/16 11:33:44;;;;;;;4.85;3.28;;;;;;;34.63;33.61;99415.09;4971149;28;20038;-95
2023/07/16 11:36:09;;;;;;;7.85;3.20;;;;;;;34.59;33.13;99400.41;4974200;28;20036;-96